sensor_id;sensor_type;location;lat;lon;timestamp;temperature;humidity
11136;DHT22;5622;50.840;4.948;2024-01-16T00:00:14;0.90;99.90
11136;DHT22;5622;50.840;4.948;2024-01-16T00:02:43;1.00;99.90
11136;DHT22;5622;50.840;4.948;2024-01-16T00:05:15;1.00;99.90
11136;DHT22;5622;50.840;4.948;2024-01-16T00:10:47;0.90;99.90
11136;DHT22;5622;50.840;4.948;2024-01-16T00:13:14;1.00;99.90
11136;DHT22;5622;50.840;4.948;2024-01-16T00:15:42;1.90;99.90
11136;DHT22;5622;50.840;4.948;2024-01-16T00:18:09;1.00;99.90
11136;DHT22;5622;50.840;4.948;2024-01-16T00:20:38;1.10;99.90
11136;DHT22;5622;50.840;4.948;2024-01-16T00:23:07;1.00;99.90
11136;DHT22;5622;50.840;4.948;2024-01-16T00:25:34;1.10;99.90
11136;DHT22;5622;50.840;4.948;2024-01-16T00:28:02;1.00;99.90
11136;DHT22;5622;50.840;4.948;2024-01-16T00:30:29;1.00;99.90
11136;DHT22;5622;50.840;4.948;2024-01-16T00:32:56;1.00;99.90
11136;DHT22;5622;50.840;4.948;2024-01-16T00:35:24;0.80;99.90
11136;DHT22;5622;50.840;4.948;2024-01-16T00:37:52;1.00;99.90
11136;DHT22;5622;50.840;4.948;2024-01-16T00:40:19;1.30;99.90
11136;DHT22;5622;50.840;4.948;2024-01-16T00:42:50;1.10;99.90
11136;DHT22;5622;50.840;4.948;2024-01-16T00:48:45;1.20;99.90
11136;DHT22;5622;50.840;4.948;2024-01-16T00:54:49;1.30;99.90
11136;DHT22;5622;50.840;4.948;2024-01-16T01:00:42;1.30;99.90
11136;DHT22;5622;50.840;4.948;2024-01-16T01:03:11;1.20;99.90
11136;DHT22;5622;50.840;4.948;2024-01-16T01:05:38;1.10;99.90
11136;DHT22;5622;50.840;4.948;2024-01-16T01:08:20;1.20;99.90
11136;DHT22;5622;50.840;4.948;2024-01-16T01:10:49;1.10;99.90
11136;DHT22;5622;50.840;4.948;2024-01-16T01:13:16;1.10;99.90
11136;DHT22;5622;50.840;4.948;2024-01-16T01:15:43;1.10;99.90
11136;DHT22;5622;50.840;4.948;2024-01-16T01:18:11;1.10;99.90
11136;DHT22;5622;50.840;4.948;2024-01-16T01:20:38;1.00;99.90
11136;DHT22;5622;50.840;4.948;2024-01-16T01:23:07;1.00;99.90
11136;DHT22;5622;50.840;4.948;2024-01-16T01:25:34;1.50;99.90
11136;DHT22;5622;50.840;4.948;2024-01-16T01:28:05;0.90;99.90
11136;DHT22;5622;50.840;4.948;2024-01-16T01:30:33;0.90;99.90
11136;DHT22;5622;50.840;4.948;2024-01-16T01:33:00;0.90;99.90
11136;DHT22;5622;50.840;4.948;2024-01-16T01:35:28;0.90;99.90
11136;DHT22;5622;50.840;4.948;2024-01-16T01:37:56;1.90;99.90
11136;DHT22;5622;50.840;4.948;2024-01-16T01:40:25;1.00;99.90
11136;DHT22;5622;50.840;4.948;2024-01-16T01:42:52;1.20;99.90
11136;DHT22;5622;50.840;4.948;2024-01-16T01:45:22;1.80;99.90
11136;DHT22;5622;50.840;4.948;2024-01-16T01:47:50;0.80;99.90
11136;DHT22;5622;50.840;4.948;2024-01-16T01:50:17;2.20;99.90
11136;DHT22;5622;50.840;4.948;2024-01-16T01:52:45;0.70;99.90
11136;DHT22;5622;50.840;4.948;2024-01-16T01:55:13;0.80;99.90
11136;DHT22;5622;50.840;4.948;2024-01-16T02:01:06;0.90;99.90
11136;DHT22;5622;50.840;4.948;2024-01-16T02:03:39;0.90;99.90
11136;DHT22;5622;50.840;4.948;2024-01-16T02:06:07;0.90;99.90
11136;DHT22;5622;50.840;4.948;2024-01-16T02:08:34;1.60;99.90
11136;DHT22;5622;50.840;4.948;2024-01-16T02:11:04;0.80;99.90
11136;DHT22;5622;50.840;4.948;2024-01-16T02:16:54;0.90;99.90
11136;DHT22;5622;50.840;4.948;2024-01-16T02:22:48;0.90;99.90
11136;DHT22;5622;50.840;4.948;2024-01-16T02:25:18;0.90;99.90
11136;DHT22;5622;50.840;4.948;2024-01-16T02:27:46;0.60;99.90
11136;DHT22;5622;50.840;4.948;2024-01-16T02:30:13;2.10;99.90
11136;DHT22;5622;50.840;4.948;2024-01-16T02:32:41;2.10;99.90
11136;DHT22;5622;50.840;4.948;2024-01-16T02:35:08;0.80;99.90
11136;DHT22;5622;50.840;4.948;2024-01-16T02:37:36;0.70;99.90
11136;DHT22;5622;50.840;4.948;2024-01-16T02:40:04;0.80;99.90
11136;DHT22;5622;50.840;4.948;2024-01-16T02:42:36;0.80;99.90
11136;DHT22;5622;50.840;4.948;2024-01-16T02:45:04;0.80;99.90
11136;DHT22;5622;50.840;4.948;2024-01-16T02:47:32;0.70;99.90
11136;DHT22;5622;50.840;4.948;2024-01-16T02:50:17;0.70;99.90
11136;DHT22;5622;50.840;4.948;2024-01-16T02:56:15;0.70;99.90
11136;DHT22;5622;50.840;4.948;2024-01-16T02:58:43;1.80;99.90
11136;DHT22;5622;50.840;4.948;2024-01-16T03:01:10;1.10;99.90
11136;DHT22;5622;50.840;4.948;2024-01-16T03:03:38;1.00;99.90
11136;DHT22;5622;50.840;4.948;2024-01-16T03:06:07;1.30;99.90
11136;DHT22;5622;50.840;4.948;2024-01-16T03:15:16;0.50;99.90
11136;DHT22;5622;50.840;4.948;2024-01-16T03:21:29;0.50;99.90
11136;DHT22;5622;50.840;4.948;2024-01-16T03:27:33;0.50;99.90
11136;DHT22;5622;50.840;4.948;2024-01-16T03:34:09;0.40;99.90
11136;DHT22;5622;50.840;4.948;2024-01-16T03:40:14;0.30;99.90
11136;DHT22;5622;50.840;4.948;2024-01-16T03:46:20;0.30;99.90
11136;DHT22;5622;50.840;4.948;2024-01-16T03:52:30;0.30;99.90
11136;DHT22;5622;50.840;4.948;2024-01-16T04:11:49;0.20;99.90
11136;DHT22;5622;50.840;4.948;2024-01-16T04:17:22;0.20;99.90
11136;DHT22;5622;50.840;4.948;2024-01-16T04:19:50;0.20;99.90
11136;DHT22;5622;50.840;4.948;2024-01-16T04:22:19;1.50;99.90
11136;DHT22;5622;50.840;4.948;2024-01-16T04:25:07;1.30;99.90
11136;DHT22;5622;50.840;4.948;2024-01-16T04:38:40;0.20;99.90
11136;DHT22;5622;50.840;4.948;2024-01-16T04:44:51;0.20;99.90
11136;DHT22;5622;50.840;4.948;2024-01-16T04:59:18;0.20;99.90
11136;DHT22;5622;50.840;4.948;2024-01-16T05:05:24;0.20;99.90
11136;DHT22;5622;50.840;4.948;2024-01-16T05:11:16;0.10;99.90
11136;DHT22;5622;50.840;4.948;2024-01-16T05:17:25;0.10;99.90
11136;DHT22;5622;50.840;4.948;2024-01-16T05:23:25;-0.10;99.90
11136;DHT22;5622;50.840;4.948;2024-01-16T05:29:32;-0.10;99.90
11136;DHT22;5622;50.840;4.948;2024-01-16T05:35:22;-0.10;99.90
11136;DHT22;5622;50.840;4.948;2024-01-16T05:37:51;0.50;99.90
11136;DHT22;5622;50.840;4.948;2024-01-16T05:40:18;0.20;99.90
11136;DHT22;5622;50.840;4.948;2024-01-16T05:42:45;-0.20;99.90
11136;DHT22;5622;50.840;4.948;2024-01-16T05:45:24;0.30;99.90
11136;DHT22;5622;50.840;4.948;2024-01-16T05:51:32;-0.20;99.90
11136;DHT22;5622;50.840;4.948;2024-01-16T05:57:46;-0.20;99.90
11136;DHT22;5622;50.840;4.948;2024-01-16T06:00:14;-0.20;99.90
11136;DHT22;5622;50.840;4.948;2024-01-16T06:02:43;-0.20;99.90
11136;DHT22;5622;50.840;4.948;2024-01-16T06:05:10;-0.30;99.90
11136;DHT22;5622;50.840;4.948;2024-01-16T06:07:43;0.50;99.90
11136;DHT22;5622;50.840;4.948;2024-01-16T06:17:07;-0.30;99.90
11136;DHT22;5622;50.840;4.948;2024-01-16T06:23:31;-0.40;99.90
11136;DHT22;5622;50.840;4.948;2024-01-16T06:29:25;-0.40;99.90
11136;DHT22;5622;50.840;4.948;2024-01-16T06:31:52;-0.40;99.90
11136;DHT22;5622;50.840;4.948;2024-01-16T06:34:22;-0.50;99.90
11136;DHT22;5622;50.840;4.948;2024-01-16T06:37:07;0.40;99.90
11136;DHT22;5622;50.840;4.948;2024-01-16T06:39:54;0.60;99.90
11136;DHT22;5622;50.840;4.948;2024-01-16T06:59:36;-0.50;99.90
11136;DHT22;5622;50.840;4.948;2024-01-16T07:12:28;-0.40;99.90
11136;DHT22;5622;50.840;4.948;2024-01-16T07:18:33;-0.40;99.90
11136;DHT22;5622;50.840;4.948;2024-01-16T07:24:22;-0.30;99.90
11136;DHT22;5622;50.840;4.948;2024-01-16T07:26:49;-0.30;99.90
11136;DHT22;5622;50.840;4.948;2024-01-16T07:29:16;-0.10;99.90
11136;DHT22;5622;50.840;4.948;2024-01-16T07:38:13;-0.20;99.90
11136;DHT22;5622;50.840;4.948;2024-01-16T07:40:40;0.70;99.90
11136;DHT22;5622;50.840;4.948;2024-01-16T07:43:07;0.60;99.90
11136;DHT22;5622;50.840;4.948;2024-01-16T07:45:34;-0.40;99.90
11136;DHT22;5622;50.840;4.948;2024-01-16T07:48:02;-0.20;99.90
11136;DHT22;5622;50.840;4.948;2024-01-16T07:50:34;-1.10;99.90
11136;DHT22;5622;50.840;4.948;2024-01-16T07:59:52;-0.20;99.90
11136;DHT22;5622;50.840;4.948;2024-01-16T08:02:20;0.50;99.90
11136;DHT22;5622;50.840;4.948;2024-01-16T08:04:47;-0.20;99.90
11136;DHT22;5622;50.840;4.948;2024-01-16T08:07:14;0.30;99.90
11136;DHT22;5622;50.840;4.948;2024-01-16T08:09:42;1.00;99.90
11136;DHT22;5622;50.840;4.948;2024-01-16T08:12:09;-0.20;99.90
11136;DHT22;5622;50.840;4.948;2024-01-16T08:14:36;0.40;99.90
11136;DHT22;5622;50.840;4.948;2024-01-16T08:17:11;-0.20;99.90
11136;DHT22;5622;50.840;4.948;2024-01-16T08:19:39;-0.20;99.90
11136;DHT22;5622;50.840;4.948;2024-01-16T08:22:06;0.30;99.90
11136;DHT22;5622;50.840;4.948;2024-01-16T08:24:35;0.60;99.90
11136;DHT22;5622;50.840;4.948;2024-01-16T08:27:06;0.70;99.90
11136;DHT22;5622;50.840;4.948;2024-01-16T08:29:34;-0.30;99.90
11136;DHT22;5622;50.840;4.948;2024-01-16T08:32:01;0.10;99.90
11136;DHT22;5622;50.840;4.948;2024-01-16T08:34:31;-0.30;99.90
11136;DHT22;5622;50.840;4.948;2024-01-16T08:36:58;-0.30;99.90
11136;DHT22;5622;50.840;4.948;2024-01-16T08:39:27;1.00;99.90
11136;DHT22;5622;50.840;4.948;2024-01-16T08:42:15;0.00;99.90
11136;DHT22;5622;50.840;4.948;2024-01-16T08:44:44;-0.20;99.90
11136;DHT22;5622;50.840;4.948;2024-01-16T08:47:11;-0.30;99.90
11136;DHT22;5622;50.840;4.948;2024-01-16T08:49:40;1.10;99.90
11136;DHT22;5622;50.840;4.948;2024-01-16T08:52:07;-0.20;99.90
11136;DHT22;5622;50.840;4.948;2024-01-16T08:54:34;0.60;99.90
11136;DHT22;5622;50.840;4.948;2024-01-16T08:57:01;1.00;99.90
11136;DHT22;5622;50.840;4.948;2024-01-16T08:59:28;0.00;99.90
11136;DHT22;5622;50.840;4.948;2024-01-16T09:05:21;-0.80;99.90
11136;DHT22;5622;50.840;4.948;2024-01-16T09:07:51;-1.00;99.90
11136;DHT22;5622;50.840;4.948;2024-01-16T09:10:18;0.00;99.90
11136;DHT22;5622;50.840;4.948;2024-01-16T09:12:55;0.00;99.90
11136;DHT22;5622;50.840;4.948;2024-01-16T09:18:55;0.00;99.90
11136;DHT22;5622;50.840;4.948;2024-01-16T09:21:23;0.20;99.90
11136;DHT22;5622;50.840;4.948;2024-01-16T09:23:51;0.00;99.90
11136;DHT22;5622;50.840;4.948;2024-01-16T09:26:20;0.10;99.90
11136;DHT22;5622;50.840;4.948;2024-01-16T09:32:27;0.10;99.90
11136;DHT22;5622;50.840;4.948;2024-01-16T09:38:29;0.10;99.90
11136;DHT22;5622;50.840;4.948;2024-01-16T09:44:19;0.10;99.90
11136;DHT22;5622;50.840;4.948;2024-01-16T09:50:09;0.10;99.90
11136;DHT22;5622;50.840;4.948;2024-01-16T09:52:37;0.20;99.90
11136;DHT22;5622;50.840;4.948;2024-01-16T09:55:07;1.20;99.90
11136;DHT22;5622;50.840;4.948;2024-01-16T09:57:37;0.20;99.90
11136;DHT22;5622;50.840;4.948;2024-01-16T10:00:07;0.30;99.90
11136;DHT22;5622;50.840;4.948;2024-01-16T10:02:38;0.20;99.90
11136;DHT22;5622;50.840;4.948;2024-01-16T10:05:06;1.60;99.90
11136;DHT22;5622;50.840;4.948;2024-01-16T10:07:52;-0.30;99.90
11136;DHT22;5622;50.840;4.948;2024-01-16T10:13:58;0.30;99.90
11136;DHT22;5622;50.840;4.948;2024-01-16T10:20:02;0.40;99.90
11136;DHT22;5622;50.840;4.948;2024-01-16T10:29:42;0.50;99.90
11136;DHT22;5622;50.840;4.948;2024-01-16T10:36:18;0.70;99.90
11136;DHT22;5622;50.840;4.948;2024-01-16T10:42:38;0.70;99.90
11136;DHT22;5622;50.840;4.948;2024-01-16T10:55:43;0.80;99.90
11136;DHT22;5622;50.840;4.948;2024-01-16T10:58:13;0.90;99.90
11136;DHT22;5622;50.840;4.948;2024-01-16T11:07:09;0.80;99.90
11136;DHT22;5622;50.840;4.948;2024-01-16T11:13:26;0.80;99.90
11136;DHT22;5622;50.840;4.948;2024-01-16T11:19:28;0.90;99.90
11136;DHT22;5622;50.840;4.948;2024-01-16T11:25:58;0.90;99.90
11136;DHT22;5622;50.840;4.948;2024-01-16T11:32:08;1.00;99.90
11136;DHT22;5622;50.840;4.948;2024-01-16T11:38:37;1.10;99.90
11136;DHT22;5622;50.840;4.948;2024-01-16T11:44:48;1.20;99.90
11136;DHT22;5622;50.840;4.948;2024-01-16T11:50:55;1.20;99.90
11136;DHT22;5622;50.840;4.948;2024-01-16T12:00:32;1.30;99.90
11136;DHT22;5622;50.840;4.948;2024-01-16T12:13:03;1.40;99.90
11136;DHT22;5622;50.840;4.948;2024-01-16T12:15:30;1.50;99.90
11136;DHT22;5622;50.840;4.948;2024-01-16T12:18:02;1.50;99.90
11136;DHT22;5622;50.840;4.948;2024-01-16T12:20:33;1.50;99.90
11136;DHT22;5622;50.840;4.948;2024-01-16T12:23:03;1.50;99.90
11136;DHT22;5622;50.840;4.948;2024-01-16T12:25:33;1.50;99.90
11136;DHT22;5622;50.840;4.948;2024-01-16T12:28:02;1.50;99.90
11136;DHT22;5622;50.840;4.948;2024-01-16T12:30:32;1.40;99.90
11136;DHT22;5622;50.840;4.948;2024-01-16T12:33:08;2.10;99.90
11136;DHT22;5622;50.840;4.948;2024-01-16T12:35:43;1.60;99.90
11136;DHT22;5622;50.840;4.948;2024-01-16T12:38:12;0.80;99.90
11136;DHT22;5622;50.840;4.948;2024-01-16T12:40:43;1.60;99.90
11136;DHT22;5622;50.840;4.948;2024-01-16T12:43:12;1.70;99.90
11136;DHT22;5622;50.840;4.948;2024-01-16T12:45:41;1.70;99.90
11136;DHT22;5622;50.840;4.948;2024-01-16T12:48:22;1.70;99.90
11136;DHT22;5622;50.840;4.948;2024-01-16T12:50:50;1.80;99.90
11136;DHT22;5622;50.840;4.948;2024-01-16T12:53:17;2.60;99.90
11136;DHT22;5622;50.840;4.948;2024-01-16T12:55:58;1.80;99.90
11136;DHT22;5622;50.840;4.948;2024-01-16T12:58:31;1.80;99.90
11136;DHT22;5622;50.840;4.948;2024-01-16T13:04:20;1.90;99.90
11136;DHT22;5622;50.840;4.948;2024-01-16T13:06:47;2.50;99.90
11136;DHT22;5622;50.840;4.948;2024-01-16T13:09:22;1.90;99.90
11136;DHT22;5622;50.840;4.948;2024-01-16T13:15:33;1.90;99.90
11136;DHT22;5622;50.840;4.948;2024-01-16T13:21:36;1.90;99.90
11136;DHT22;5622;50.840;4.948;2024-01-16T13:27:33;2.00;99.90
11136;DHT22;5622;50.840;4.948;2024-01-16T13:33:30;1.80;99.90
11136;DHT22;5622;50.840;4.948;2024-01-16T13:39:33;2.10;99.90
11136;DHT22;5622;50.840;4.948;2024-01-16T13:45:27;2.00;99.90
11136;DHT22;5622;50.840;4.948;2024-01-16T13:51:32;2.10;99.90
11136;DHT22;5622;50.840;4.948;2024-01-16T13:57:47;1.70;99.90
11136;DHT22;5622;50.840;4.948;2024-01-16T14:00:15;2.10;99.90
11136;DHT22;5622;50.840;4.948;2024-01-16T14:02:43;2.10;99.90
11136;DHT22;5622;50.840;4.948;2024-01-16T14:05:32;2.00;99.90
11136;DHT22;5622;50.840;4.948;2024-01-16T14:11:22;2.00;99.90
11136;DHT22;5622;50.840;4.948;2024-01-16T14:17:31;2.00;99.90
11136;DHT22;5622;50.840;4.948;2024-01-16T14:19:59;2.10;99.90
11136;DHT22;5622;50.840;4.948;2024-01-16T14:22:26;2.00;99.90
11136;DHT22;5622;50.840;4.948;2024-01-16T14:24:55;2.00;99.90
11136;DHT22;5622;50.840;4.948;2024-01-16T14:27:24;2.00;99.90
11136;DHT22;5622;50.840;4.948;2024-01-16T14:29:53;2.00;99.90
11136;DHT22;5622;50.840;4.948;2024-01-16T14:32:20;2.00;99.90
11136;DHT22;5622;50.840;4.948;2024-01-16T14:34:49;2.00;99.90
11136;DHT22;5622;50.840;4.948;2024-01-16T14:37:24;2.00;99.90
11136;DHT22;5622;50.840;4.948;2024-01-16T14:39:53;2.00;99.90
11136;DHT22;5622;50.840;4.948;2024-01-16T14:42:20;2.00;99.90
11136;DHT22;5622;50.840;4.948;2024-01-16T14:44:53;2.00;99.90
11136;DHT22;5622;50.840;4.948;2024-01-16T14:50:50;2.00;99.90
11136;DHT22;5622;50.840;4.948;2024-01-16T14:53:19;2.00;99.90
11136;DHT22;5622;50.840;4.948;2024-01-16T14:55:46;2.00;99.90
11136;DHT22;5622;50.840;4.948;2024-01-16T14:58:14;2.60;99.90
11136;DHT22;5622;50.840;4.948;2024-01-16T15:00:47;1.90;99.90
11136;DHT22;5622;50.840;4.948;2024-01-16T15:06:41;1.80;99.90
11136;DHT22;5622;50.840;4.948;2024-01-16T15:12:40;1.70;99.90
11136;DHT22;5622;50.840;4.948;2024-01-16T15:18:32;1.60;99.90
11136;DHT22;5622;50.840;4.948;2024-01-16T15:24:22;1.60;99.90
11136;DHT22;5622;50.840;4.948;2024-01-16T15:26:54;1.50;99.90
11136;DHT22;5622;50.840;4.948;2024-01-16T15:29:22;2.70;99.90
11136;DHT22;5622;50.840;4.948;2024-01-16T15:31:49;1.40;99.90
11136;DHT22;5622;50.840;4.948;2024-01-16T15:34:17;1.40;99.90
11136;DHT22;5622;50.840;4.948;2024-01-16T15:40:08;1.30;99.90
11136;DHT22;5622;50.840;4.948;2024-01-16T15:46:02;1.30;99.90
11136;DHT22;5622;50.840;4.948;2024-01-16T15:51:37;1.30;99.90
11136;DHT22;5622;50.840;4.948;2024-01-16T15:54:13;1.20;99.90
11136;DHT22;5622;50.840;4.948;2024-01-16T15:56:49;2.40;99.90
11136;DHT22;5622;50.840;4.948;2024-01-16T15:59:16;2.00;99.90
11136;DHT22;5622;50.840;4.948;2024-01-16T16:01:43;1.00;99.90
11136;DHT22;5622;50.840;4.948;2024-01-16T16:04:12;1.00;99.90
11136;DHT22;5622;50.840;4.948;2024-01-16T16:06:41;1.60;99.90
11136;DHT22;5622;50.840;4.948;2024-01-16T16:09:18;0.90;99.90
11136;DHT22;5622;50.840;4.948;2024-01-16T16:11:50;1.20;99.90
11136;DHT22;5622;50.840;4.948;2024-01-16T16:14:19;2.10;99.90
11136;DHT22;5622;50.840;4.948;2024-01-16T16:16:53;1.00;99.90
11136;DHT22;5622;50.840;4.948;2024-01-16T16:19:23;0.90;99.90
11136;DHT22;5622;50.840;4.948;2024-01-16T16:21:51;0.90;99.90
11136;DHT22;5622;50.840;4.948;2024-01-16T16:24:20;0.90;99.90
11136;DHT22;5622;50.840;4.948;2024-01-16T16:26:59;1.80;99.90
11136;DHT22;5622;50.840;4.948;2024-01-16T16:29:41;0.80;99.90
11136;DHT22;5622;50.840;4.948;2024-01-16T17:23:38;0.40;99.90
11136;DHT22;5622;50.840;4.948;2024-01-16T17:54:04;0.10;99.90
11136;DHT22;5622;50.840;4.948;2024-01-16T17:56:31;0.10;99.90
11136;DHT22;5622;50.840;4.948;2024-01-16T17:59:01;0.10;99.90
11136;DHT22;5622;50.840;4.948;2024-01-16T18:01:42;1.30;99.90
11136;DHT22;5622;50.840;4.948;2024-01-16T18:08:29;0.10;99.90
11136;DHT22;5622;50.840;4.948;2024-01-16T18:17:55;0.10;99.90
11136;DHT22;5622;50.840;4.948;2024-01-16T18:30:35;-0.30;99.90
11136;DHT22;5622;50.840;4.948;2024-01-16T18:36:27;-0.40;99.90
11136;DHT22;5622;50.840;4.948;2024-01-16T18:42:16;-0.60;99.90
11136;DHT22;5622;50.840;4.948;2024-01-16T18:48:10;-0.60;99.90
11136;DHT22;5622;50.840;4.948;2024-01-16T18:54:04;-0.60;99.90
11136;DHT22;5622;50.840;4.948;2024-01-16T18:56:34;-0.60;99.90
11136;DHT22;5622;50.840;4.948;2024-01-16T18:59:03;-0.60;99.90
11136;DHT22;5622;50.840;4.948;2024-01-16T19:04:55;-0.40;99.90
11136;DHT22;5622;50.840;4.948;2024-01-16T19:10:47;-0.50;99.90
11136;DHT22;5622;50.840;4.948;2024-01-16T19:16:37;-0.50;99.90
11136;DHT22;5622;50.840;4.948;2024-01-16T19:19:06;-0.60;99.90
11136;DHT22;5622;50.840;4.948;2024-01-16T19:21:35;-0.60;99.90
11136;DHT22;5622;50.840;4.948;2024-01-16T19:24:03;-0.60;99.90
11136;DHT22;5622;50.840;4.948;2024-01-16T19:26:34;-0.60;99.90
11136;DHT22;5622;50.840;4.948;2024-01-16T19:29:03;-2.00;99.90
11136;DHT22;5622;50.840;4.948;2024-01-16T19:34:57;-0.50;99.90
11136;DHT22;5622;50.840;4.948;2024-01-16T19:37:29;-0.50;99.90
11136;DHT22;5622;50.840;4.948;2024-01-16T19:40:00;-1.40;99.90
11136;DHT22;5622;50.840;4.948;2024-01-16T19:42:31;-0.70;99.90
11136;DHT22;5622;50.840;4.948;2024-01-16T19:45:04;-1.00;99.90
11136;DHT22;5622;50.840;4.948;2024-01-16T19:47:32;-0.70;99.90
11136;DHT22;5622;50.840;4.948;2024-01-16T19:50:04;-1.40;99.90
11136;DHT22;5622;50.840;4.948;2024-01-16T19:52:35;-0.70;99.90
11136;DHT22;5622;50.840;4.948;2024-01-16T19:55:02;-0.80;99.90
11136;DHT22;5622;50.840;4.948;2024-01-16T19:57:33;-0.80;99.90
11136;DHT22;5622;50.840;4.948;2024-01-16T20:00:02;-1.30;99.90
11136;DHT22;5622;50.840;4.948;2024-01-16T20:02:34;-0.90;99.90
11136;DHT22;5622;50.840;4.948;2024-01-16T20:05:02;-0.90;99.90
11136;DHT22;5622;50.840;4.948;2024-01-16T20:07:30;-1.00;99.90
11136;DHT22;5622;50.840;4.948;2024-01-16T20:09:58;-1.10;99.90
11136;DHT22;5622;50.840;4.948;2024-01-16T20:12:26;-1.00;99.90
11136;DHT22;5622;50.840;4.948;2024-01-16T20:14:55;-1.30;99.90
11136;DHT22;5622;50.840;4.948;2024-01-16T20:17:23;-1.00;99.90
11136;DHT22;5622;50.840;4.948;2024-01-16T20:19:50;-0.40;99.90
11136;DHT22;5622;50.840;4.948;2024-01-16T20:22:18;-0.70;99.90
11136;DHT22;5622;50.840;4.948;2024-01-16T20:24:47;-0.40;99.90
11136;DHT22;5622;50.840;4.948;2024-01-16T20:27:16;-1.10;99.90
11136;DHT22;5622;50.840;4.948;2024-01-16T20:29:45;-1.00;99.90
11136;DHT22;5622;50.840;4.948;2024-01-16T20:32:14;-1.00;99.90
11136;DHT22;5622;50.840;4.948;2024-01-16T20:34:43;-1.00;99.90
11136;DHT22;5622;50.840;4.948;2024-01-16T20:37:10;-1.10;99.90
11136;DHT22;5622;50.840;4.948;2024-01-16T20:39:40;-1.10;99.90
11136;DHT22;5622;50.840;4.948;2024-01-16T20:42:09;-1.10;99.90
11136;DHT22;5622;50.840;4.948;2024-01-16T20:44:39;-0.40;99.90
11136;DHT22;5622;50.840;4.948;2024-01-16T20:47:08;0.00;99.90
11136;DHT22;5622;50.840;4.948;2024-01-16T20:49:37;-1.90;99.90
11136;DHT22;5622;50.840;4.948;2024-01-16T20:52:05;-1.10;99.90
11136;DHT22;5622;50.840;4.948;2024-01-16T20:54:33;-1.30;99.90
11136;DHT22;5622;50.840;4.948;2024-01-16T20:57:10;-0.90;99.90
11136;DHT22;5622;50.840;4.948;2024-01-16T20:59:38;-0.90;99.90
11136;DHT22;5622;50.840;4.948;2024-01-16T21:02:08;-1.50;99.90
11136;DHT22;5622;50.840;4.948;2024-01-16T21:04:37;-1.30;99.90
11136;DHT22;5622;50.840;4.948;2024-01-16T21:07:05;0.10;99.90
11136;DHT22;5622;50.840;4.948;2024-01-16T21:09:34;-1.20;99.90
11136;DHT22;5622;50.840;4.948;2024-01-16T21:12:02;-0.60;99.90
11136;DHT22;5622;50.840;4.948;2024-01-16T21:14:30;-1.30;99.90
11136;DHT22;5622;50.840;4.948;2024-01-16T21:16:58;-1.20;99.90
11136;DHT22;5622;50.840;4.948;2024-01-16T21:19:27;-0.60;99.90
11136;DHT22;5622;50.840;4.948;2024-01-16T21:21:55;-1.20;99.90
11136;DHT22;5622;50.840;4.948;2024-01-16T21:24:23;-0.70;99.90
11136;DHT22;5622;50.840;4.948;2024-01-16T21:26:50;-1.20;99.90
11136;DHT22;5622;50.840;4.948;2024-01-16T21:29:19;-1.50;99.90
11136;DHT22;5622;50.840;4.948;2024-01-16T21:31:53;-1.10;99.90
11136;DHT22;5622;50.840;4.948;2024-01-16T21:34:21;-1.30;99.90
11136;DHT22;5622;50.840;4.948;2024-01-16T21:36:49;-1.30;99.90
11136;DHT22;5622;50.840;4.948;2024-01-16T21:39:26;-0.70;99.90
11136;DHT22;5622;50.840;4.948;2024-01-16T21:41:54;-1.70;99.90
11136;DHT22;5622;50.840;4.948;2024-01-16T21:44:22;-0.50;99.90
11136;DHT22;5622;50.840;4.948;2024-01-16T21:46:49;-1.10;99.90
11136;DHT22;5622;50.840;4.948;2024-01-16T21:49:16;-1.20;99.90
11136;DHT22;5622;50.840;4.948;2024-01-16T21:51:45;-1.30;99.90
11136;DHT22;5622;50.840;4.948;2024-01-16T21:54:12;-0.20;99.90
11136;DHT22;5622;50.840;4.948;2024-01-16T21:56:41;-1.50;99.90
11136;DHT22;5622;50.840;4.948;2024-01-16T21:59:08;-0.70;99.90
11136;DHT22;5622;50.840;4.948;2024-01-16T22:01:35;-1.10;99.90
11136;DHT22;5622;50.840;4.948;2024-01-16T22:04:04;-0.20;99.90
11136;DHT22;5622;50.840;4.948;2024-01-16T22:06:35;-0.40;99.90
11136;DHT22;5622;50.840;4.948;2024-01-16T22:09:03;-1.00;99.90
11136;DHT22;5622;50.840;4.948;2024-01-16T22:11:30;-1.50;99.90
11136;DHT22;5622;50.840;4.948;2024-01-16T22:14:01;-0.80;99.90
11136;DHT22;5622;50.840;4.948;2024-01-16T22:16:31;-1.70;99.90
11136;DHT22;5622;50.840;4.948;2024-01-16T22:18:59;-0.50;99.90
11136;DHT22;5622;50.840;4.948;2024-01-16T22:21:29;-1.70;99.90
11136;DHT22;5622;50.840;4.948;2024-01-16T22:23:58;-1.70;99.90
11136;DHT22;5622;50.840;4.948;2024-01-16T22:26:25;-1.80;99.90
11136;DHT22;5622;50.840;4.948;2024-01-16T22:28:54;-1.80;99.90
11136;DHT22;5622;50.840;4.948;2024-01-16T22:31:24;-0.60;99.90
11136;DHT22;5622;50.840;4.948;2024-01-16T22:33:51;-1.70;99.90
11136;DHT22;5622;50.840;4.948;2024-01-16T22:36:20;-1.00;99.90
11136;DHT22;5622;50.840;4.948;2024-01-16T22:38:48;-1.90;99.90
11136;DHT22;5622;50.840;4.948;2024-01-16T22:41:15;-1.20;99.90
11136;DHT22;5622;50.840;4.948;2024-01-16T22:43:44;-2.20;99.90
11136;DHT22;5622;50.840;4.948;2024-01-16T22:46:11;-2.10;99.90
11136;DHT22;5622;50.840;4.948;2024-01-16T22:48:40;-2.20;99.90
11136;DHT22;5622;50.840;4.948;2024-01-16T22:51:09;-1.90;99.90
11136;DHT22;5622;50.840;4.948;2024-01-16T22:53:36;-0.90;99.90
11136;DHT22;5622;50.840;4.948;2024-01-16T22:56:03;-1.50;99.90
11136;DHT22;5622;50.840;4.948;2024-01-16T22:58:31;-2.00;99.90
11136;DHT22;5622;50.840;4.948;2024-01-16T23:01:01;-1.30;99.90
11136;DHT22;5622;50.840;4.948;2024-01-16T23:03:32;-1.10;99.90
11136;DHT22;5622;50.840;4.948;2024-01-16T23:06:01;-0.70;99.90
11136;DHT22;5622;50.840;4.948;2024-01-16T23:08:33;-2.00;99.90
11136;DHT22;5622;50.840;4.948;2024-01-16T23:11:01;-2.00;99.90
11136;DHT22;5622;50.840;4.948;2024-01-16T23:13:30;-1.60;99.90
11136;DHT22;5622;50.840;4.948;2024-01-16T23:15:59;-2.00;99.90
11136;DHT22;5622;50.840;4.948;2024-01-16T23:18:26;-2.00;99.90
11136;DHT22;5622;50.840;4.948;2024-01-16T23:20:53;-1.50;99.90
11136;DHT22;5622;50.840;4.948;2024-01-16T23:23:22;-1.20;99.90
11136;DHT22;5622;50.840;4.948;2024-01-16T23:25:49;-2.10;99.90
11136;DHT22;5622;50.840;4.948;2024-01-16T23:28:17;-2.10;99.90
11136;DHT22;5622;50.840;4.948;2024-01-16T23:30:44;-2.20;99.90
11136;DHT22;5622;50.840;4.948;2024-01-16T23:33:13;-2.20;99.90
11136;DHT22;5622;50.840;4.948;2024-01-16T23:35:42;-2.00;99.90
11136;DHT22;5622;50.840;4.948;2024-01-16T23:38:09;-2.20;99.90
11136;DHT22;5622;50.840;4.948;2024-01-16T23:40:40;-2.00;99.90
11136;DHT22;5622;50.840;4.948;2024-01-16T23:43:07;-1.10;99.90
11136;DHT22;5622;50.840;4.948;2024-01-16T23:45:34;-2.10;99.90
11136;DHT22;5622;50.840;4.948;2024-01-16T23:48:01;-1.20;99.90
11136;DHT22;5622;50.840;4.948;2024-01-16T23:50:29;-2.20;99.90
11136;DHT22;5622;50.840;4.948;2024-01-16T23:52:58;-2.30;99.90
11136;DHT22;5622;50.840;4.948;2024-01-16T23:55:25;-1.30;99.90
11136;DHT22;5622;50.840;4.948;2024-01-16T23:57:54;-2.20;99.90
